createdAt,value
2019-05-07T00:02:02.740Z,11.70
2019-05-07T00:04:34.672Z,12.53
2019-05-07T00:07:06.497Z,11.33
2019-05-07T00:09:38.522Z,9.43
2019-05-07T00:12:12.586Z,10.43
2019-05-07T00:14:58.244Z,9.40
2019-05-07T00:17:19.031Z,7.65
2019-05-07T00:19:52.608Z,8.60
2019-05-07T00:22:25.598Z,8.43
2019-05-07T00:24:57.880Z,7.73
2019-05-07T00:27:31.920Z,7.03
2019-05-07T00:30:03.248Z,7.17
2019-05-07T00:32:34.588Z,6.90
2019-05-07T00:35:08.273Z,6.92
2019-05-07T00:37:45.232Z,6.53
2019-05-07T00:40:32.799Z,7.00
2019-05-07T00:43:16.773Z,7.73
2019-05-07T00:46:02.289Z,7.08
2019-05-07T00:48:34.156Z,7.40
2019-05-07T00:51:28.244Z,7.28
2019-05-07T00:54:02.706Z,7.00
2019-05-07T00:56:33.829Z,7.30
2019-05-07T00:59:06.279Z,6.60
2019-05-07T01:01:38.405Z,6.67
2019-05-07T01:04:12.016Z,6.47
2019-05-07T01:06:43.633Z,6.77
2019-05-07T01:09:15.730Z,7.03
2019-05-07T01:11:47.672Z,7.67
2019-05-07T01:14:19.807Z,8.10
2019-05-07T01:16:52.894Z,8.60
2019-05-07T01:19:24.551Z,7.93
2019-05-07T01:21:56.602Z,9.13
2019-05-07T01:24:28.590Z,9.20
2019-05-07T01:27:02.143Z,9.30
2019-05-07T01:29:34.162Z,9.77
2019-05-07T01:32:12.965Z,9.90
2019-05-07T01:34:55.683Z,10.77
2019-05-07T01:37:26.913Z,11.63
2019-05-07T01:39:58.463Z,11.97
2019-05-07T01:42:32.557Z,12.37
2019-05-07T01:45:03.929Z,12.47
2019-05-07T01:47:35.274Z,12.53
2019-05-07T01:50:08.831Z,12.60
2019-05-07T01:52:42.722Z,11.90
2019-05-07T01:55:14.430Z,13.50
2019-05-07T01:57:46.021Z,11.50
2019-05-07T02:00:17.444Z,12.13
2019-05-07T02:02:57.135Z,10.93
2019-05-07T02:05:47.805Z,11.10
2019-05-07T02:08:38.703Z,10.27
2019-05-07T02:11:13.150Z,10.00
2019-05-07T02:13:45.887Z,12.03
2019-05-07T02:16:17.731Z,10.70
2019-05-07T02:18:49.554Z,11.20
2019-05-07T02:21:22.049Z,10.27
2019-05-07T02:23:54.344Z,10.67
2019-05-07T02:26:25.875Z,11.30
2019-05-07T02:28:57.467Z,10.97
2019-05-07T02:31:29.359Z,11.23
2019-05-07T02:34:02.745Z,11.33
2019-05-07T02:36:35.641Z,10.33
2019-05-07T02:39:16.030Z,10.97
2019-05-07T02:41:47.738Z,10.50
2019-05-07T02:44:19.281Z,10.13
2019-05-07T02:47:04.041Z,9.55
2019-05-07T02:49:46.395Z,10.20
2019-05-07T02:52:24.884Z,10.43
2019-05-07T02:55:07.334Z,10.63
2019-05-07T02:57:39.203Z,10.60
2019-05-07T03:00:14.079Z,10.63
2019-05-07T03:02:43.942Z,9.90
2019-05-07T03:05:15.551Z,10.27
2019-05-07T03:07:47.127Z,9.80
2019-05-07T03:10:19.229Z,11.15
2019-05-07T03:12:53.626Z,9.90
2019-05-07T03:15:28.271Z,10.97
2019-05-07T03:18:03.419Z,9.63
2019-05-07T03:20:44.101Z,10.90
2019-05-07T03:23:18.581Z,10.53
2019-05-07T03:26:08.690Z,10.47
2019-05-07T03:28:53.457Z,10.03
2019-05-07T03:31:46.604Z,9.60
2019-05-07T03:34:38.494Z,9.83
2019-05-07T03:37:13.570Z,10.40
2019-05-07T03:39:45.239Z,10.00
2019-05-07T03:42:17.227Z,9.43
2019-05-07T03:44:54.001Z,10.37
2019-05-07T03:47:33.316Z,10.83
2019-05-07T03:50:06.470Z,11.23
2019-05-07T03:52:37.852Z,10.60
2019-05-07T03:55:10.290Z,10.63
2019-05-07T03:57:43.666Z,11.03
2019-05-07T04:00:15.772Z,11.57
2019-05-07T04:02:47.554Z,11.23
2019-05-07T04:05:22.940Z,10.90
2019-05-07T04:07:54.110Z,10.53
2019-05-07T04:10:25.777Z,11.43
2019-05-07T04:12:57.143Z,11.40
2019-05-07T04:15:28.970Z,11.03
2019-05-07T04:18:03.495Z,11.17
2019-05-07T04:20:34.260Z,11.57
2019-05-07T04:23:06.189Z,9.90
2019-05-07T04:25:57.107Z,11.43
2019-05-07T04:29:05.826Z,11.37
2019-05-07T04:31:43.057Z,12.20
2019-05-07T04:34:19.374Z,10.85
2019-05-07T04:36:53.418Z,10.77
2019-05-07T04:39:24.462Z,12.07
2019-05-07T04:41:56.077Z,11.57
2019-05-07T04:44:28.270Z,12.37
2019-05-07T04:47:00.439Z,12.30
2019-05-07T04:49:33.236Z,11.83
2019-05-07T04:52:12.473Z,11.10
2019-05-07T04:54:43.657Z,10.08
2019-05-07T04:57:28.335Z,10.57
2019-05-07T05:00:03.330Z,10.93
2019-05-07T05:02:43.536Z,12.17
2019-05-07T05:05:15.576Z,11.12
2019-05-07T05:07:46.882Z,10.73
2019-05-07T05:10:18.622Z,12.37
2019-05-07T05:12:50.248Z,11.30
2019-05-07T05:15:22.334Z,11.60
2019-05-07T05:17:54.306Z,11.70
2019-05-07T05:20:35.040Z,11.37
2019-05-07T05:23:24.280Z,13.27
2019-05-07T05:25:55.967Z,11.27
2019-05-07T05:28:27.820Z,12.10
2019-05-07T05:31:03.302Z,11.83
2019-05-07T05:33:34.929Z,12.53
2019-05-07T05:36:06.518Z,13.07
2019-05-07T05:38:38.141Z,12.83
2019-05-07T05:41:12.300Z,12.10
2019-05-07T05:44:05.086Z,12.03
2019-05-07T05:46:37.160Z,12.70
2019-05-07T05:49:08.731Z,12.20
2019-05-07T05:52:02.147Z,11.40
2019-05-07T05:54:42.461Z,11.20
2019-05-07T05:57:35.490Z,11.83
2019-05-07T06:00:38.583Z,12.20
2019-05-07T06:03:32.345Z,11.18
2019-05-07T06:06:14.763Z,11.20
2019-05-07T06:08:52.630Z,11.50
2019-05-07T06:11:55.866Z,10.90
2019-05-07T06:14:42.500Z,10.73
2019-05-07T06:17:36.905Z,10.33
2019-05-07T06:20:33.903Z,8.78
2019-05-07T06:23:23.201Z,9.17
2019-05-07T06:25:54.871Z,8.03
2019-05-07T06:28:26.619Z,9.33
2019-05-07T06:30:58.342Z,9.90
2019-05-07T06:33:32.413Z,7.63
2019-05-07T06:36:04.568Z,9.57
2019-05-07T06:38:42.940Z,9.60
2019-05-07T06:41:25.124Z,9.30
2019-05-07T06:44:02.063Z,8.77
2019-05-07T06:46:34.265Z,9.67
2019-05-07T06:49:08.510Z,7.47
2019-05-07T06:51:41.976Z,7.97
2019-05-07T06:54:13.949Z,8.93
2019-05-07T06:56:45.604Z,7.77
2019-05-07T06:59:26.163Z,7.10
2019-05-07T07:02:16.559Z,8.90
2019-05-07T07:04:55.286Z,7.70
2019-05-07T07:07:42.282Z,7.47
2019-05-07T07:10:25.035Z,5.87
2019-05-07T07:12:56.669Z,5.07
2019-05-07T07:15:28.214Z,5.40
2019-05-07T07:17:59.980Z,5.67
2019-05-07T07:20:32.666Z,5.77
2019-05-07T07:23:04.677Z,5.40
2019-05-07T07:25:36.499Z,5.33
2019-05-07T07:28:08.959Z,4.60
2019-05-07T07:30:54.328Z,3.90
2019-05-07T07:33:28.710Z,4.40
2019-05-07T07:36:02.477Z,4.20
2019-05-07T07:38:35.474Z,4.57
2019-05-07T07:41:22.321Z,2.90
2019-05-07T07:43:54.215Z,2.75
2019-05-07T07:46:25.881Z,1.90
2019-05-07T07:49:07.859Z,1.97
2019-05-07T07:51:40.586Z,1.97
2019-05-07T07:54:05.025Z,2.20
2019-05-07T07:56:52.969Z,2.40
2019-05-07T07:59:52.948Z,2.33
2019-05-07T08:02:32.231Z,2.13
2019-05-07T08:05:03.093Z,1.40
2019-05-07T08:07:34.833Z,2.50
2019-05-07T08:10:06.673Z,2.20
2019-05-07T08:12:42.066Z,2.00
2019-05-07T08:15:20.390Z,1.97
2019-05-07T08:17:46.552Z,1.57
2019-05-07T08:20:19.286Z,2.20
2019-05-07T08:22:52.623Z,2.00
2019-05-07T08:25:42.694Z,2.27
2019-05-07T08:28:14.474Z,1.82
2019-05-07T08:30:54.230Z,1.30
2019-05-07T08:33:32.311Z,0.90
2019-05-07T08:36:17.254Z,1.55
2019-05-07T08:38:53.243Z,0.90
2019-05-07T08:41:26.049Z,1.52
2019-05-07T08:44:15.095Z,1.30
2019-05-07T08:47:03.854Z,1.42
2019-05-07T08:49:39.854Z,1.77
2019-05-07T08:52:12.020Z,2.02
2019-05-07T08:54:44.330Z,1.20
2019-05-07T08:57:16.123Z,1.70
2019-05-07T09:00:00.120Z,1.37
2019-05-07T09:02:22.272Z,1.30
2019-05-07T09:04:54.023Z,1.42
2019-05-07T09:07:25.986Z,1.90
2019-05-07T09:09:58.220Z,1.20
2019-05-07T09:12:31.699Z,1.13
2019-05-07T09:15:05.260Z,1.07
2019-05-07T09:17:36.596Z,0.87
2019-05-07T09:20:09.303Z,0.93
2019-05-07T09:22:42.743Z,0.97
2019-05-07T09:25:14.907Z,0.90
2019-05-07T09:27:48.203Z,0.87
2019-05-07T09:30:56.787Z,0.70
2019-05-07T09:33:42.317Z,1.00
2019-05-07T09:36:22.848Z,1.00
2019-05-07T09:38:59.341Z,1.47
2019-05-07T09:41:32.587Z,1.22
2019-05-07T09:44:03.311Z,1.20
2019-05-07T09:46:34.905Z,1.03
2019-05-07T09:49:07.142Z,0.80
2019-05-07T09:51:38.660Z,1.27
2019-05-07T09:54:12.717Z,1.00
2019-05-07T09:56:44.432Z,1.52
2019-05-07T09:59:16.316Z,1.80
2019-05-07T10:01:47.948Z,0.70
2019-05-07T10:04:19.313Z,1.13
2019-05-07T10:06:51.898Z,0.97
2019-05-07T10:09:23.659Z,0.65
2019-05-07T10:12:06.752Z,0.75
2019-05-07T10:14:38.432Z,0.90
2019-05-07T10:17:33.451Z,0.90
2019-05-07T10:20:18.232Z,1.00
2019-05-07T10:22:42.883Z,1.05
2019-05-07T10:25:14.234Z,0.63
2019-05-07T10:27:47.906Z,0.67
2019-05-07T10:30:21.714Z,0.78
2019-05-07T10:32:52.851Z,0.80
2019-05-07T10:35:23.992Z,0.80
2019-05-07T10:37:56.681Z,0.70
2019-05-07T10:40:28.460Z,1.32
2019-05-07T10:43:00.324Z,1.10
2019-05-07T10:45:51.967Z,1.60
2019-05-07T10:48:46.419Z,1.10
2019-05-07T10:51:18.293Z,1.10
2019-05-07T10:53:51.680Z,0.85
2019-05-07T10:56:22.607Z,0.60
2019-05-07T10:58:54.094Z,0.87
2019-05-07T11:01:38.117Z,1.13
2019-05-07T11:04:09.897Z,1.00
2019-05-07T11:06:41.904Z,1.10
2019-05-07T11:09:13.896Z,0.90
2019-05-07T11:11:46.032Z,1.07
2019-05-07T11:14:17.725Z,1.30
2019-05-07T11:17:11.955Z,1.07
2019-05-07T11:19:43.322Z,1.00
2019-05-07T11:22:15.839Z,1.00
2019-05-07T11:24:47.088Z,1.17
2019-05-07T11:27:18.902Z,0.70
2019-05-07T11:29:50.834Z,1.20
2019-05-07T11:32:22.350Z,0.60
2019-05-07T11:34:56.378Z,1.30
2019-05-07T11:37:27.992Z,0.72
2019-05-07T11:39:59.959Z,1.00
2019-05-07T11:43:06.100Z,1.10
2019-05-07T11:46:01.982Z,0.83
2019-05-07T11:48:36.402Z,1.20
2019-05-07T11:51:23.323Z,1.37
2019-05-07T11:54:14.756Z,0.80
2019-05-07T11:56:46.246Z,1.10
2019-05-07T11:59:17.797Z,0.93
2019-05-07T12:01:53.515Z,1.07
2019-05-07T12:04:27.859Z,1.20
2019-05-07T12:06:58.956Z,0.85
2019-05-07T12:09:30.741Z,1.13
2019-05-07T12:12:02.665Z,1.00
2019-05-07T12:14:35.102Z,1.10
2019-05-07T12:17:06.357Z,1.73
2019-05-07T12:19:37.620Z,0.90
2019-05-07T12:22:08.933Z,0.97
2019-05-07T12:24:41.879Z,1.13
2019-05-07T12:27:13.375Z,1.27
2019-05-07T12:29:47.692Z,1.30
2019-05-07T12:32:28.725Z,0.97
2019-05-07T12:35:04.725Z,1.65
2019-05-07T12:37:35.969Z,1.13
2019-05-07T12:40:07.812Z,1.33
2019-05-07T12:42:39.647Z,1.10
2019-05-07T12:45:12.606Z,0.73
2019-05-07T12:47:44.837Z,1.10
2019-05-07T12:50:16.800Z,1.10
2019-05-07T12:52:56.546Z,1.35
2019-05-07T12:55:39.264Z,1.07
2019-05-07T12:58:12.616Z,1.00
2019-05-07T13:00:59.607Z,1.00
2019-05-07T13:03:54.367Z,1.15
2019-05-07T13:06:26.855Z,1.30
2019-05-07T13:09:01.156Z,0.90
2019-05-07T13:11:34.691Z,1.17
2019-05-07T13:14:06.624Z,0.93
2019-05-07T13:16:39.521Z,1.13
2019-05-07T13:19:13.096Z,1.13
2019-05-07T13:21:49.617Z,1.00
2019-05-07T13:24:18.268Z,0.80
2019-05-07T13:26:51.800Z,1.10
2019-05-07T13:29:23.508Z,0.80
2019-05-07T13:31:55.582Z,0.97
2019-05-07T13:34:27.227Z,1.00
2019-05-07T13:37:03.130Z,0.82
2019-05-07T13:39:57.167Z,1.53
2019-05-07T13:42:43.924Z,1.62
2019-05-07T13:45:37.581Z,1.17
2019-05-07T13:48:15.571Z,1.00
2019-05-07T13:50:47.682Z,0.77
2019-05-07T13:53:20.038Z,1.10
2019-05-07T13:55:51.438Z,1.00
2019-05-07T13:58:23.135Z,1.60
2019-05-07T14:01:04.933Z,1.10
2019-05-07T14:03:36.126Z,0.93
2019-05-07T14:06:07.439Z,1.27
2019-05-07T14:08:42.366Z,1.10
2019-05-07T14:11:13.756Z,1.20
2019-05-07T14:13:46.140Z,1.03
2019-05-07T14:16:18.007Z,1.20
2019-05-07T14:18:49.620Z,1.00
2019-05-07T14:21:21.956Z,1.35
2019-05-07T14:23:53.774Z,1.20
2019-05-07T14:26:25.274Z,1.02
2019-05-07T14:28:56.812Z,0.90
2019-05-07T14:31:28.630Z,0.93
2019-05-07T14:34:13.393Z,1.37
2019-05-07T14:36:57.842Z,1.30
2019-05-07T14:39:36.185Z,1.00
2019-05-07T14:42:09.835Z,1.10
2019-05-07T14:44:52.810Z,1.30
2019-05-07T14:47:24.493Z,1.27
2019-05-07T14:49:55.892Z,2.90
2019-05-07T14:52:33.066Z,1.10
2019-05-07T14:55:05.030Z,1.00
2019-05-07T14:57:36.074Z,1.47
2019-05-07T15:00:07.760Z,0.93
2019-05-07T15:02:41.929Z,1.13
2019-05-07T15:05:12.964Z,1.00
2019-05-07T15:08:07.041Z,1.10
2019-05-07T15:10:27.242Z,1.20
2019-05-07T15:12:59.121Z,0.90
2019-05-07T15:15:31.175Z,1.27
2019-05-07T15:18:08.647Z,1.30
2019-05-07T15:20:41.954Z,1.17
2019-05-07T15:23:18.647Z,0.97
2019-05-07T15:25:51.715Z,0.93
2019-05-07T15:28:23.921Z,1.40
2019-05-07T15:31:02.942Z,1.60
2019-05-07T15:33:34.681Z,1.07
2019-05-07T15:36:06.616Z,1.20
2019-05-07T15:38:39.936Z,1.40
2019-05-07T15:41:11.627Z,1.10
2019-05-07T15:43:45.847Z,1.40
2019-05-07T15:46:16.326Z,1.30
2019-05-07T15:48:47.796Z,1.60
2019-05-07T15:51:19.373Z,1.30
2019-05-07T15:53:53.646Z,1.50
2019-05-07T15:56:25.613Z,1.45
2019-05-07T15:58:57.467Z,1.63
2019-05-07T16:01:29.359Z,1.47
2019-05-07T16:04:02.775Z,1.40
2019-05-07T16:06:36.225Z,1.47
2019-05-07T16:09:08.904Z,1.57
2019-05-07T16:11:43.046Z,1.53
2019-05-07T16:14:26.860Z,1.50
2019-05-07T16:17:13.666Z,1.47
2019-05-07T16:19:46.236Z,1.40
2019-05-07T16:22:24.779Z,1.10
2019-05-07T16:24:56.057Z,1.57
2019-05-07T16:27:27.719Z,1.40
2019-05-07T16:29:59.621Z,1.63
2019-05-07T16:32:32.856Z,1.47
2019-05-07T16:35:05.681Z,1.60
2019-05-07T16:37:37.772Z,1.73
2019-05-07T16:40:09.527Z,1.43
2019-05-07T16:42:42.901Z,1.73
2019-05-07T16:45:15.282Z,1.40
2019-05-07T16:47:47.142Z,1.60
2019-05-07T16:50:18.910Z,2.40
2019-05-07T16:52:52.488Z,1.90
2019-05-07T16:55:28.562Z,2.00
2019-05-07T16:58:23.484Z,2.50
2019-05-07T17:01:00.172Z,1.50
2019-05-07T17:03:39.857Z,1.87
2019-05-07T17:06:12.522Z,1.80
2019-05-07T17:08:54.275Z,1.80
2019-05-07T17:11:25.913Z,1.53
2019-05-07T17:13:57.556Z,1.87
2019-05-07T17:16:31.580Z,1.55
2019-05-07T17:19:03.031Z,1.75
2019-05-07T17:21:35.278Z,1.50
2019-05-07T17:24:06.849Z,1.73
2019-05-07T17:26:38.966Z,2.10
2019-05-07T17:29:12.037Z,1.33
2019-05-07T17:31:44.164Z,1.50
2019-05-07T17:34:16.180Z,1.53
2019-05-07T17:36:47.977Z,1.63
2019-05-07T17:39:20.066Z,1.63
2019-05-07T17:41:52.546Z,1.63
2019-05-07T17:44:24.293Z,1.87
2019-05-07T17:47:01.923Z,1.70
2019-05-07T17:49:36.306Z,1.70
2019-05-07T17:52:09.970Z,1.70
2019-05-07T17:54:42.370Z,1.60
2019-05-07T17:57:15.920Z,1.43
2019-05-07T17:59:47.879Z,1.80
2019-05-07T18:02:29.589Z,1.62
2019-05-07T18:05:02.821Z,1.57
2019-05-07T18:07:36.824Z,1.70
2019-05-07T18:10:09.927Z,1.73
2019-05-07T18:12:43.532Z,1.67
2019-05-07T18:15:15.887Z,1.30
2019-05-07T18:17:53.053Z,2.00
2019-05-07T18:20:24.435Z,1.30
2019-05-07T18:22:56.378Z,1.37
2019-05-07T18:25:28.391Z,1.10
2019-05-07T18:28:01.866Z,1.52
2019-05-07T18:30:33.749Z,1.67
2019-05-07T18:33:29.686Z,1.67
2019-05-07T18:36:02.809Z,1.00
2019-05-07T18:38:34.835Z,1.77
2019-05-07T18:41:06.858Z,1.50
2019-05-07T18:43:39.034Z,2.13
2019-05-07T18:46:12.754Z,2.07
2019-05-07T18:48:45.004Z,1.77
2019-05-07T18:51:16.751Z,2.10
2019-05-07T18:53:49.136Z,2.17
2019-05-07T18:56:22.146Z,2.30
2019-05-07T18:58:54.208Z,2.20
2019-05-07T19:01:27.386Z,1.87
2019-05-07T19:03:59.523Z,2.60
2019-05-07T19:06:32.597Z,1.90
2019-05-07T19:09:05.792Z,2.50
2019-05-07T19:11:39.679Z,2.43
2019-05-07T19:14:13.247Z,2.53
2019-05-07T19:16:45.785Z,2.30
2019-05-07T19:19:17.568Z,2.87
2019-05-07T19:21:49.614Z,2.60
2019-05-07T19:24:25.835Z,1.87
2019-05-07T19:26:55.730Z,1.77
2019-05-07T19:29:27.600Z,2.23
2019-05-07T19:31:59.832Z,1.97
2019-05-07T19:34:32.464Z,2.12
2019-05-07T19:37:04.041Z,2.27
2019-05-07T19:39:36.099Z,3.00
2019-05-07T19:42:08.177Z,2.40
2019-05-07T19:44:42.264Z,2.03
2019-05-07T19:47:14.240Z,2.23
2019-05-07T19:49:46.312Z,2.73
2019-05-07T19:52:18.568Z,3.00
2019-05-07T19:55:00.483Z,2.53
2019-05-07T19:57:28.146Z,2.93
2019-05-07T20:00:00.100Z,2.40
2019-05-07T20:02:37.288Z,2.67
2019-05-07T20:05:08.619Z,2.80
2019-05-07T20:07:42.335Z,3.50
2019-05-07T20:10:15.770Z,2.97
2019-05-07T20:12:47.454Z,2.33
2019-05-07T20:15:19.255Z,3.07
2019-05-07T20:17:52.632Z,2.90
2019-05-07T20:20:24.482Z,2.70
2019-05-07T20:22:59.595Z,3.23
2019-05-07T20:25:33.387Z,2.50
2019-05-07T20:28:04.492Z,2.47
2019-05-07T20:30:36.118Z,2.72
2019-05-07T20:33:07.877Z,2.77
2019-05-07T20:35:41.301Z,2.97
2019-05-07T20:38:13.139Z,40.00
2019-05-07T20:40:45.111Z,3.13
2019-05-07T20:43:17.272Z,3.80
2019-05-07T20:45:49.417Z,4.43
2019-05-07T20:48:22.663Z,4.20
2019-05-07T20:50:54.478Z,3.90
2019-05-07T20:53:43.949Z,5.00
2019-05-07T20:56:16.323Z,4.67
2019-05-07T20:58:48.521Z,4.40
2019-05-07T21:01:22.016Z,3.63
2019-05-07T21:03:54.473Z,3.83
2019-05-07T21:06:26.529Z,4.60
2019-05-07T21:08:58.512Z,6.83
2019-05-07T21:11:32.369Z,16.20
2019-05-07T21:14:03.561Z,8.30
2019-05-07T21:16:35.324Z,5.27
2019-05-07T21:19:06.682Z,4.43
2019-05-07T21:21:38.421Z,4.77
2019-05-07T21:24:09.995Z,4.57
2019-05-07T21:26:42.336Z,4.40
2019-05-07T21:29:15.039Z,4.17
2019-05-07T21:31:47.368Z,4.15
2019-05-07T21:34:19.886Z,4.17
2019-05-07T21:36:52.422Z,4.37
2019-05-07T21:39:24.409Z,4.27
2019-05-07T21:41:56.241Z,5.40
2019-05-07T21:44:28.232Z,4.33
2019-05-07T21:47:01.719Z,4.60
2019-05-07T21:49:34.712Z,4.17
2019-05-07T21:52:06.141Z,4.87
2019-05-07T21:54:59.285Z,4.00
2019-05-07T21:57:55.740Z,3.62
2019-05-07T22:00:45.148Z,4.47
2019-05-07T22:03:18.459Z,4.03
2019-05-07T22:05:51.719Z,4.13
2019-05-07T22:08:23.859Z,3.40
2019-05-07T22:10:55.541Z,4.17
2019-05-07T22:13:28.325Z,3.93
2019-05-07T22:16:02.528Z,3.80
2019-05-07T22:18:34.679Z,4.63
2019-05-07T22:21:06.352Z,4.30
2019-05-07T22:23:38.231Z,4.60
2019-05-07T22:26:20.340Z,4.40
2019-05-07T22:28:43.277Z,4.30
2019-05-07T22:31:28.238Z,5.13
2019-05-07T22:34:18.758Z,4.57
2019-05-07T22:36:52.091Z,4.90
2019-05-07T22:39:37.695Z,5.27
2019-05-07T22:42:11.863Z,4.12
2019-05-07T22:44:43.971Z,4.53
2019-05-07T22:47:22.723Z,4.63
2019-05-07T22:49:55.673Z,3.92
2019-05-07T22:52:27.842Z,4.80
2019-05-07T22:54:59.705Z,4.85
2019-05-07T22:57:41.879Z,4.63
2019-05-07T23:00:22.633Z,4.33
2019-05-07T23:02:54.042Z,4.57
2019-05-07T23:05:25.986Z,4.53
2019-05-07T23:07:57.955Z,4.33
2019-05-07T23:10:29.825Z,4.62
2019-05-07T23:13:02.278Z,4.17
2019-05-07T23:15:34.064Z,5.50
2019-05-07T23:18:05.789Z,4.63
2019-05-07T23:20:37.845Z,4.80
2019-05-07T23:23:09.683Z,5.33
2019-05-07T23:25:43.115Z,5.13
2019-05-07T23:28:15.186Z,6.00
2019-05-07T23:30:47.039Z,5.53
2019-05-07T23:33:19.110Z,4.80
2019-05-07T23:35:52.793Z,4.87
2019-05-07T23:38:24.687Z,4.70
2019-05-07T23:41:04.310Z,5.00
2019-05-07T23:43:36.882Z,5.27
2019-05-07T23:46:08.857Z,5.20
2019-05-07T23:48:42.698Z,5.33
2019-05-07T23:51:14.434Z,5.47
2019-05-07T23:53:46.565Z,5.00
2019-05-07T23:56:18.016Z,5.40
2019-05-07T23:58:49.931Z,5.17
